Time;durP1;ratioP1;P1;durP2;ratioP2;P2;SDS_P1;SDS_P2;PMS_P1;PMS_P2;Temp;Humidity;BMP_temperature;BMP_pressure;BME280_temperature;BME280_humidity;BME280_pressure;Samples;Min_cycle;Max_cycle;Signal;HPM_P1;HPM_P2
2022/01/29 00:00:55;;;;;;;9.57;2.00;;;10.10;99.90;;;;;;5029643;28;20256;-57
2022/01/29 00:03:22;;;;;;;14.33;2.10;;;10.10;99.90;;;;;;5030877;28;20181;-58
2022/01/29 00:05:49;;;;;;;11.23;2.07;;;9.80;99.90;;;;;;5030895;28;20185;-58
2022/01/29 00:08:15;;;;;;;19.90;2.40;;;10.10;99.90;;;;;;5030955;28;20668;-57
2022/01/29 00:10:43;;;;;;;11.37;2.97;;;10.10;99.90;;;;;;5030725;28;20279;-57
2022/01/29 00:13:09;;;;;;;12.97;2.40;;;10.10;99.90;;;;;;5030774;28;20174;-57
2022/01/29 00:15:35;;;;;;;13.27;2.20;;;10.10;99.90;;;;;;5030797;28;20174;-57
2022/01/29 00:18:01;;;;;;;14.03;2.33;;;10.10;99.90;;;;;;5013201;28;20188;-57
2022/01/29 00:20:26;;;;;;;18.57;2.07;;;10.10;99.90;;;;;;5030401;28;20317;-58
2022/01/29 00:22:52;;;;;;;10.57;1.53;;;10.10;99.90;;;;;;5012709;28;20641;-57
2022/01/29 00:25:18;;;;;;;10.97;2.00;;;10.10;99.90;;;;;;5030209;28;20178;-57
2022/01/29 00:27:44;;;;;;;13.43;2.77;;;10.10;99.90;;;;;;5030687;28;20173;-57
2022/01/29 00:30:15;;;;;;;15.03;2.33;;;10.10;99.90;;;;;;5030640;28;20315;-57
2022/01/29 00:32:40;;;;;;;12.63;2.37;;;10.10;99.90;;;;;;5012543;28;20197;-57
2022/01/29 00:35:06;;;;;;;16.07;2.30;;;10.10;99.90;;;;;;5030537;28;20641;-57
2022/01/29 00:37:33;;;;;;;18.63;2.00;;;10.10;99.90;;;;;;5030716;28;20174;-57
2022/01/29 00:39:59;;;;;;;15.60;2.47;;;10.00;99.90;;;;;;5030532;28;20795;-57
2022/01/29 00:42:25;;;;;;;17.60;2.27;;;10.10;99.90;;;;;;5030299;28;20197;-58
2022/01/29 00:44:51;;;;;;;16.47;2.40;;;10.10;99.90;;;;;;5012623;28;20663;-57
2022/01/29 00:47:17;;;;;;;10.33;1.77;;;10.10;99.90;;;;;;5011814;28;20659;-57
2022/01/29 00:49:43;;;;;;;8.50;1.80;;;10.10;99.90;;;;;;5029834;28;20178;-58
2022/01/29 00:52:09;;;;;;;10.73;1.80;;;10.10;99.90;;;;;;5029578;28;20174;-58
2022/01/29 00:54:36;;;;;;;11.70;1.77;;;10.10;99.90;;;;;;5030348;28;20260;-57
2022/01/29 00:57:02;;;;;;;17.43;2.13;;;10.10;99.90;;;;;;5030427;28;20180;-58
2022/01/29 00:59:28;;;;;;;17.97;2.40;;;10.10;99.90;;;;;;5029744;28;20216;-58
2022/01/29 01:01:53;;;;;;;22.23;2.23;;;10.10;99.90;;;;;;5030142;28;20186;-58
2022/01/29 01:04:19;;;;;;;17.83;2.57;;;9.90;99.90;;;;;;5030036;28;20253;-58
2022/01/29 01:06:45;;;;;;;11.20;1.97;;;10.00;99.90;;;;;;5029985;28;20181;-57
2022/01/29 01:09:11;;;;;;;14.83;2.03;;;10.10;99.90;;;;;;5030430;28;20178;-57
2022/01/29 01:11:36;;;;;;;12.63;1.50;;;10.10;99.90;;;;;;5029895;28;20277;-57
2022/01/29 01:14:02;;;;;;;7.37;1.70;;;10.10;99.90;;;;;;5029896;28;20185;-57
2022/01/29 01:16:28;;;;;;;11.97;1.83;;;10.50;99.90;;;;;;5012386;28;20218;-57
2022/01/29 01:18:54;;;;;;;9.43;1.83;;;10.10;99.90;;;;;;5029656;28;20178;-58
2022/01/29 01:21:19;;;;;;;8.43;1.43;;;10.10;99.90;;;;;;5030195;28;20213;-57
2022/01/29 01:23:45;;;;;;;11.37;1.50;;;10.00;99.90;;;;;;5030005;28;20212;-57
2022/01/29 01:26:11;;;;;;;5.07;1.03;;;10.10;99.90;;;;;;5023450;28;20227;-57
2022/01/29 01:28:37;;;;;;;14.00;1.40;;;10.10;99.90;;;;;;5030168;28;20648;-57
2022/01/29 01:31:03;;;;;;;8.67;1.10;;;10.10;99.90;;;;;;5030284;28;20174;-57
2022/01/29 01:33:28;;;;;;;9.97;1.63;;;10.10;99.90;;;;;;5029588;28;20884;-56
2022/01/29 01:35:59;;;;;;;9.93;1.23;;;10.10;99.90;;;;;;5030159;28;20205;-57
2022/01/29 01:38:34;;;;;;;8.53;1.03;;;10.10;99.90;;;;;;5030048;28;20170;-56
2022/01/29 01:41:05;;;;;;;7.63;0.73;;;10.10;99.90;;;;;;5029917;28;20209;-56
2022/01/29 01:43:30;;;;;;;6.73;1.10;;;10.20;99.90;;;;;;5029590;28;20184;-57
2022/01/29 01:45:56;;;;;;;8.27;0.83;;;10.10;99.90;;;;;;5029305;28;20539;-57
2022/01/29 01:48:22;;;;;;;8.07;1.20;;;10.20;99.90;;;;;;5030034;28;20192;-56
2022/01/29 01:50:49;;;;;;;7.67;1.20;;;10.20;99.90;;;;;;5029796;28;20176;-56
2022/01/29 01:53:15;;;;;;;8.07;1.00;;;10.20;99.90;;;;;;5029360;28;20214;-57
2022/01/29 01:55:41;;;;;;;6.17;1.00;;;10.20;99.90;;;;;;5029837;28;20202;-57
2022/01/29 01:58:07;;;;;;;5.63;0.80;;;10.20;99.90;;;;;;5029655;28;20286;-57
2022/01/29 02:00:33;;;;;;;3.90;0.63;;;10.20;99.90;;;;;;5029965;28;20252;-56
2022/01/29 02:02:59;;;;;;;3.10;1.40;;;10.30;99.90;;;;;;5024533;28;20182;-57
2022/01/29 02:05:24;;;;;;;9.37;1.07;;;10.20;99.90;;;;;;5032377;28;20169;-56
2022/01/29 02:07:51;;;;;;;6.30;0.93;;;10.20;99.90;;;;;;5026667;28;20649;-57
2022/01/29 02:10:18;;;;;;;4.10;0.70;;;10.20;99.90;;;;;;5002277;28;20301;-56
2022/01/29 02:12:49;;;;;;;5.90;0.80;;;10.20;99.90;;;;;;5033325;28;20173;-56
2022/01/29 02:15:17;;;;;;;3.20;0.70;;;10.40;99.90;;;;;;4998692;28;20202;-56
2022/01/29 02:17:45;;;;;;;4.17;0.50;;;10.20;99.90;;;;;;4983213;28;20698;-56
2022/01/29 02:20:12;;;;;;;2.63;0.40;;;11.00;99.90;;;;;;4993844;28;20202;-56
2022/01/29 02:22:41;;;;;;;4.80;0.50;;;10.20;99.90;;;;;;4993471;28;20201;-56
2022/01/29 02:25:28;;;;;;;8.10;0.97;;;10.10;99.90;;;;;;4993531;28;20658;-56
2022/01/29 02:27:55;;;;;;;5.30;0.80;;;10.20;99.90;;;;;;4993729;28;20225;-56
2022/01/29 02:30:22;;;;;;;7.77;0.50;;;;;;;;;;4993715;28;20175;-56
2022/01/29 02:32:47;;;;;;;8.87;0.60;;;10.10;99.90;;;;;;4975460;28;20172;-56
2022/01/29 02:35:13;;;;;;;7.63;0.73;;;10.30;99.90;;;;;;4982635;28;20182;-56
2022/01/29 02:37:39;;;;;;;6.23;0.83;;;10.30;99.90;;;;;;4993307;28;20528;-56
2022/01/29 02:40:06;;;;;;;3.90;0.53;;;10.20;99.90;;;;;;4993165;28;20210;-56
2022/01/29 02:42:31;;;;;;;8.13;1.07;;;10.10;99.90;;;;;;4992649;28;20179;-56
2022/01/29 02:44:57;;;;;;;10.50;1.10;;;10.20;99.90;;;;;;4993072;28;20195;-56
2022/01/29 02:47:29;;;;;;;6.93;1.53;;;10.40;99.90;;;;;;4991512;28;20653;-55
2022/01/29 02:49:55;;;;;;;8.30;0.90;;;10.10;99.90;;;;;;4993237;28;20233;-56
2022/01/29 02:52:21;;;;;;;8.20;1.00;;;10.10;99.90;;;;;;4992874;28;20187;-56
2022/01/29 02:54:47;;;;;;;7.30;1.17;;;10.20;99.90;;;;;;4991859;28;20198;-56
2022/01/29 02:57:13;;;;;;;5.90;0.80;;;10.10;99.90;;;;;;4993072;28;20576;-56
2022/01/29 02:59:38;;;;;;;8.23;1.10;;;10.00;99.90;;;;;;4992798;28;20650;-55
2022/01/29 03:02:04;;;;;;;6.87;1.10;;;10.10;99.90;;;;;;4993007;28;20220;-56
2022/01/29 03:04:30;;;;;;;7.50;0.77;;;10.20;99.90;;;;;;4992414;28;20738;-56
2022/01/29 03:06:56;;;;;;;7.17;0.97;;;10.20;99.90;;;;;;4992681;28;20558;-56
2022/01/29 03:09:21;;;;;;;9.67;1.40;;;10.20;99.90;;;;;;4986372;28;20175;-56
2022/01/29 03:11:47;;;;;;;7.43;1.00;;;;;;;;;;4992866;28;20489;-58
2022/01/29 03:14:13;;;;;;;5.80;0.90;;;10.10;99.90;;;;;;4992064;28;20186;-57
2022/01/29 03:16:39;;;;;;;7.37;1.00;;;10.10;99.90;;;;;;5014845;28;20213;-57
2022/01/29 03:19:04;;;;;;;7.47;1.00;;;10.10;99.90;;;;;;5031634;28;20178;-57
2022/01/29 03:21:30;;;;;;;4.83;0.60;;;10.10;99.90;;;;;;5032045;28;20675;-57
2022/01/29 03:23:56;;;;;;;7.90;0.70;;;10.10;99.90;;;;;;5031774;28;20667;-57
2022/01/29 03:26:22;;;;;;;4.20;0.53;;;10.00;99.90;;;;;;5008454;28;20186;-57
2022/01/29 03:28:47;;;;;;;8.00;0.73;;;10.10;99.90;;;;;;5012015;28;20167;-57
2022/01/29 03:31:13;;;;;;;6.50;0.80;;;10.10;99.90;;;;;;5012113;28;20575;-56
2022/01/29 03:33:39;;;;;;;2.40;0.40;;;10.10;99.90;;;;;;5027366;28;20182;-57
2022/01/29 03:36:05;;;;;;;4.23;0.73;;;10.10;99.90;;;;;;5031363;28;20196;-58
2022/01/29 03:38:31;;;;;;;5.73;0.70;;;10.10;99.90;;;;;;5031777;28;20174;-58
2022/01/29 03:40:58;;;;;;;5.43;0.70;;;10.10;99.90;;;;;;5031175;28;20216;-58
2022/01/29 03:43:31;;;;;;;5.83;0.80;;;10.10;99.90;;;;;;5031243;28;20201;-57
2022/01/29 03:45:57;;;;;;;2.80;0.80;;;10.10;99.90;;;;;;5031373;28;20196;-58
2022/01/29 03:48:23;;;;;;;4.67;0.60;;;10.10;99.90;;;;;;5031149;28;20173;-58
2022/01/29 03:50:49;;;;;;;2.80;0.57;;;10.20;99.90;;;;;;5031449;28;20170;-57
2022/01/29 03:53:15;;;;;;;2.33;0.40;;;10.20;99.90;;;;;;5031151;28;20254;-57
2022/01/29 03:55:40;;;;;;;4.33;0.40;;;10.30;99.90;;;;;;5030753;28;20182;-56
2022/01/29 03:58:06;;;;;;;4.13;0.43;;;10.30;99.90;;;;;;5031190;28;20170;-57
2022/01/29 04:00:32;;;;;;;2.07;0.53;;;10.30;99.90;;;;;;5013361;28;20214;-56
2022/01/29 04:02:58;;;;;;;3.80;0.50;;;10.30;99.90;;;;;;5030920;28;20227;-57
2022/01/29 04:05:26;;;;;;;4.10;0.50;;;10.30;99.90;;;;;;5023447;28;20240;-56
2022/01/29 04:07:52;;;;;;;2.50;0.27;;;10.30;99.90;;;;;;5011507;28;20252;-56
2022/01/29 04:10:19;;;;;;;0.30;0.10;;;10.30;99.90;;;;;;5019702;28;20178;-56
2022/01/29 04:12:49;;;;;;;3.50;0.30;;;10.30;99.90;;;;;;5030756;28;20177;-57
2022/01/29 04:15:14;;;;;;;2.40;0.50;;;10.40;99.90;;;;;;5030600;28;20181;-56
2022/01/29 04:17:41;;;;;;;2.97;0.50;;;10.30;99.90;;;;;;5030640;28;20236;-56
2022/01/29 04:20:08;;;;;;;1.70;0.40;;;10.30;99.90;;;;;;5012826;28;20296;-56
2022/01/29 04:22:33;;;;;;;3.93;0.50;;;10.30;99.90;;;;;;5020961;28;20181;-56
2022/01/29 04:24:59;;;;;;;4.10;0.50;;;10.30;99.90;;;;;;5028009;28;20621;-56
2022/01/29 04:27:35;;;;;;;3.53;0.83;;;10.20;99.90;;;;;;5029953;28;20236;-56
2022/01/29 04:30:07;;;;;;;5.60;1.40;;;10.30;99.90;;;;;;5030671;28;20162;-57
2022/01/29 04:32:57;;;;;;;1.43;0.70;;;10.20;99.90;;;;;;5012602;28;20178;-57
2022/01/29 04:35:19;;;;;;;4.07;1.00;;;10.20;99.90;;;;;;5030481;28;20720;-58
2022/01/29 04:37:46;;;;;;;3.73;0.83;;;10.20;99.90;;;;;;5030721;28;20216;-57
2022/01/29 04:40:12;;;;;;;3.77;0.70;;;10.60;99.90;;;;;;5030218;28;20201;-57
2022/01/29 04:42:38;;;;;;;4.90;0.93;;;10.20;99.90;;;;;;5030260;28;20205;-57
2022/01/29 04:45:04;;;;;;;4.07;0.70;;;10.20;99.90;;;;;;5030547;28;20201;-57
2022/01/29 04:47:30;;;;;;;3.43;0.70;;;9.90;99.90;;;;;;5030598;28;20224;-57
2022/01/29 04:49:56;;;;;;;6.07;0.80;;;10.20;99.90;;;;;;5030514;28;20640;-57
2022/01/29 04:52:21;;;;;;;6.73;1.67;;;10.20;99.90;;;;;;5030253;28;20544;-57
2022/01/29 04:54:47;;;;;;;6.40;1.20;;;10.20;99.90;;;;;;5029949;28;20216;-57
2022/01/29 04:57:13;;;;;;;9.50;1.37;;;10.20;99.90;;;;;;5030685;28;20259;-57
2022/01/29 04:59:39;;;;;;;5.60;0.90;;;10.30;99.90;;;;;;5030208;28;20679;-57
2022/01/29 05:02:05;;;;;;;2.40;0.60;;;10.20;99.90;;;;;;5012325;28;20200;-56
2022/01/29 05:04:30;;;;;;;6.07;0.80;;;10.30;99.90;;;;;;5030562;28;20204;-57
2022/01/29 05:06:56;;;;;;;4.73;0.67;;;10.30;99.90;;;;;;5029629;28;20200;-57
2022/01/29 05:09:28;;;;;;;6.10;1.00;;;10.20;99.90;;;;;;5024362;28;20178;-58
2022/01/29 05:11:55;;;;;;;9.30;1.10;;;10.20;99.90;;;;;;5009812;28;20264;-57
2022/01/29 05:26:48;;;;;;;7.83;1.03;;;10.10;99.90;;;;;;5030272;28;20228;-57
2022/01/29 05:27:59;;;;;;;8.77;0.80;;;10.20;99.90;;;;;;5029977;28;20220;-57
2022/01/29 05:30:25;;;;;;;7.93;1.07;;;10.20;99.90;;;;;;5030150;28;20166;-56
2022/01/29 05:32:51;;;;;;;2.27;0.57;;;10.20;99.90;;;;;;5029765;28;20240;-55
2022/01/29 05:35:16;;;;;;;2.80;0.80;;;10.30;99.90;;;;;;5012068;28;20178;-55
2022/01/29 05:37:42;;;;;;;7.00;0.90;;;10.30;99.90;;;;;;5031238;28;20189;-56
2022/01/29 05:40:08;;;;;;;9.00;1.03;;;10.30;99.90;;;;;;5033511;28;20237;-56
2022/01/29 05:42:34;;;;;;;4.67;1.20;;;10.30;99.90;;;;;;5015241;28;20206;-56
2022/01/29 05:45:00;;;;;;;3.17;0.70;;;10.30;99.90;;;;;;5033749;28;20581;-56
2022/01/29 05:47:26;;;;;;;3.20;0.83;;;10.30;99.90;;;;;;5033821;28;20174;-56
2022/01/29 05:49:51;;;;;;;8.03;0.80;;;9.90;99.90;;;;;;5027562;28;20174;-56
2022/01/29 05:52:17;;;;;;;2.40;0.50;;;10.30;99.90;;;;;;5033630;28;20178;-56
2022/01/29 05:54:43;;;;;;;4.00;0.60;;;10.30;99.90;;;;;;5033494;28;20224;-55
2022/01/29 05:57:09;;;;;;;4.73;0.80;;;10.30;99.90;;;;;;5033395;28;20219;-57
2022/01/29 05:59:36;;;;;;;7.10;0.93;;;10.30;99.90;;;;;;5033555;28;20197;-57
2022/01/29 06:02:02;;;;;;;4.50;0.90;;;10.20;99.90;;;;;;5033348;28;20177;-56
2022/01/29 06:04:28;;;;;;;3.30;0.70;;;10.20;99.90;;;;;;5033338;28;20177;-57
2022/01/29 06:06:54;;;;;;;7.97;0.73;;;11.80;99.90;;;;;;5033399;28;20543;-57
2022/01/29 06:09:19;;;;;;;5.33;0.90;;;10.20;99.90;;;;;;5015643;28;20201;-57
2022/01/29 06:11:45;;;;;;;4.37;0.90;;;10.10;99.90;;;;;;5032856;28;20166;-57
2022/01/29 06:14:12;;;;;;;5.13;0.90;;;9.90;99.90;;;;;;5032779;28;20184;-55
2022/01/29 06:16:38;;;;;;;7.07;1.00;;;10.20;99.90;;;;;;5033114;28;20264;-56
2022/01/29 06:19:04;;;;;;;5.83;0.77;;;9.90;99.90;;;;;;5032608;28;20221;-55
2022/01/29 06:21:30;;;;;;;4.17;0.87;;;10.20;99.90;;;;;;5032146;28;20276;-55
2022/01/29 06:23:57;;;;;;;9.17;0.90;;;10.10;99.90;;;;;;5032571;28;20178;-55
2022/01/29 06:26:23;;;;;;;7.87;1.23;;;10.10;99.90;;;;;;5032534;28;20170;-56
2022/01/29 06:28:49;;;;;;;6.57;1.00;;;10.10;99.90;;;;;;5033044;28;20172;-55
2022/01/29 06:31:14;;;;;;;8.10;0.93;;;10.10;99.90;;;;;;5032711;28;20166;-56
2022/01/29 06:33:40;;;;;;;5.53;1.10;;;10.00;99.90;;;;;;5032853;28;20177;-55
2022/01/29 06:36:06;;;;;;;11.63;1.80;;;10.00;99.90;;;;;;5033063;28;20174;-56
2022/01/29 06:38:32;;;;;;;10.13;1.40;;;10.10;99.90;;;;;;5032765;28;20216;-56
2022/01/29 06:40:58;;;;;;;4.10;0.80;;;10.10;99.90;;;;;;5032538;28;20343;-56
2022/01/29 06:43:24;;;;;;;2.80;0.77;;;10.10;99.90;;;;;;5032602;28;20174;-56
2022/01/29 06:45:50;;;;;;;7.33;0.80;;;10.10;99.90;;;;;;5014896;28;20178;-58
2022/01/29 06:48:16;;;;;;;11.53;1.03;;;10.10;99.90;;;;;;5032414;28;20648;-56
2022/01/29 06:50:42;;;;;;;12.83;1.20;;;10.10;99.90;;;;;;5031825;28;20182;-57
2022/01/29 06:53:07;;;;;;;9.97;0.97;;;9.00;99.90;;;;;;5029616;28;20184;-56
2022/01/29 06:55:34;;;;;;;10.83;1.03;;;10.20;99.90;;;;;;5025209;28;20181;-56
2022/01/29 06:57:59;;;;;;;5.60;1.03;;;10.20;99.90;;;;;;5032130;28;20245;-55
2022/01/29 07:00:25;;;;;;;10.27;1.37;;;10.20;99.90;;;;;;5032449;28;20300;-56
2022/01/29 07:02:51;;;;;;;9.37;1.27;;;10.20;99.90;;;;;;5032313;28;20245;-56
2022/01/29 07:05:17;;;;;;;10.90;2.00;;;9.90;99.90;;;;;;5032259;28;20174;-56
2022/01/29 07:07:42;;;;;;;8.23;1.77;;;10.20;99.90;;;;;;5031939;28;20204;-57
2022/01/29 07:10:09;;;;;;;10.93;1.77;;;10.20;99.90;;;;;;5031993;28;20178;-56
2022/01/29 07:12:39;;;;;;;6.70;1.90;;;10.20;99.90;;;;;;5031884;28;20178;-56
2022/01/29 07:15:07;;;;;;;9.17;1.77;;;10.30;99.90;;;;;;5014184;28;20170;-56
2022/01/29 07:17:33;;;;;;;8.47;1.07;;;10.40;99.90;;;;;;5031619;28;20313;-56
2022/01/29 07:19:59;;;;;;;9.70;1.80;;;10.20;99.90;;;;;;5031998;28;20220;-56
2022/01/29 07:22:24;;;;;;;7.87;1.43;;;10.80;99.90;;;;;;5031320;28;20487;-56
2022/01/29 07:24:50;;;;;;;6.90;1.70;;;10.20;99.90;;;;;;5031719;28;20576;-56
2022/01/29 07:27:16;;;;;;;12.50;1.53;;;10.10;99.90;;;;;;5031838;28;20189;-55
2022/01/29 07:29:42;;;;;;;3.63;1.07;;;10.20;99.90;;;;;;5031084;28;20213;-55
2022/01/29 07:32:08;;;;;;;7.63;1.17;;;10.10;99.90;;;;;;5031426;28;20189;-56
2022/01/29 07:34:34;;;;;;;3.80;1.10;;;10.20;99.90;;;;;;5031753;28;20299;-56
2022/01/29 07:37:00;;;;;;;6.03;0.87;;;10.30;99.90;;;;;;5031927;28;20636;-57
2022/01/29 07:39:27;;;;;;;10.27;1.10;;;10.10;99.90;;;;;;5031249;28;20182;-55
2022/01/29 07:41:53;;;;;;;3.70;1.07;;;10.50;99.90;;;;;;5029508;28;20185;-55
2022/01/29 07:44:20;;;;;;;7.97;1.23;;;10.10;99.90;;;;;;5029822;28;20265;-55
2022/01/29 07:46:46;;;;;;;5.67;0.97;;;10.10;99.90;;;;;;5030745;28;20178;-57
2022/01/29 07:49:11;;;;;;;9.87;1.07;;;10.10;99.90;;;;;;5030955;28;20517;-57
2022/01/29 07:51:38;;;;;;;10.43;1.70;;;10.10;99.90;;;;;;5031190;28;20170;-56
2022/01/29 07:54:05;;;;;;;8.20;1.20;;;10.10;99.90;;;;;;5038712;28;20241;-56
2022/01/29 07:56:30;;;;;;;7.33;1.40;;;10.10;99.90;;;;;;5029138;28;20186;-56
2022/01/29 07:58:56;;;;;;;7.87;1.13;;;10.10;99.90;;;;;;5013662;28;20170;-56
2022/01/29 08:01:22;;;;;;;9.77;1.50;;;10.20;99.90;;;;;;5030964;28;20217;-56
2022/01/29 08:03:50;;;;;;;7.43;1.77;;;10.20;99.90;;;;;;5030851;28;20182;-56
2022/01/29 08:06:17;;;;;;;10.50;1.60;;;10.00;99.90;;;;;;5031295;28;20202;-57
2022/01/29 08:08:44;;;;;;;11.47;1.67;;;10.10;99.90;;;;;;5031266;28;20166;-56
2022/01/29 08:11:11;;;;;;;17.20;1.40;;;10.20;99.90;;;;;;5030616;28;20181;-56
2022/01/29 08:13:37;;;;;;;12.70;1.73;;;10.20;99.90;;;;;;5028154;28;20182;-56
2022/01/29 08:16:03;;;;;;;7.43;1.30;;;10.20;99.90;;;;;;5031046;28;20214;-56
2022/01/29 08:18:29;;;;;;;8.90;1.47;;;10.20;99.90;;;;;;5030179;28;20188;-56
2022/01/29 08:20:55;;;;;;;4.67;0.83;;;10.20;99.90;;;;;;5025529;28;20206;-56
2022/01/29 08:23:21;;;;;;;6.90;1.13;;;10.00;99.90;;;;;;5029662;28;20315;-57
2022/01/29 08:25:47;;;;;;;7.83;1.07;;;10.20;99.90;;;;;;5013102;28;20182;-56
2022/01/29 08:28:12;;;;;;;4.83;1.10;;;10.30;99.90;;;;;;5030612;28;20178;-55
2022/01/29 08:30:38;;;;;;;6.50;0.90;;;10.20;99.90;;;;;;5030730;28;20180;-55
2022/01/29 08:33:06;;;;;;;10.07;1.50;;;10.00;99.90;;;;;;5015009;28;20190;-55
2022/01/29 08:35:33;;;;;;;7.73;1.10;;;10.30;99.90;;;;;;5030424;28;20251;-55
2022/01/29 08:37:59;;;;;;;7.00;1.03;;;10.30;99.90;;;;;;5030155;28;20641;-55
2022/01/29 08:40:25;;;;;;;6.70;0.73;;;10.50;99.90;;;;;;5012874;28;20232;-55
2022/01/29 08:42:52;;;;;;;6.37;1.30;;;10.30;99.90;;;;;;5012201;28;20166;-55
2022/01/29 08:45:17;;;;;;;8.90;1.07;;;10.40;99.90;;;;;;5029461;28;20213;-54
2022/01/29 08:47:43;;;;;;;7.60;1.00;;;10.40;99.90;;;;;;5030482;28;20220;-57
2022/01/29 08:50:11;;;;;;;4.47;0.73;;;10.40;99.90;;;;;;5029977;28;20178;-58
2022/01/29 08:52:37;;;;;;;9.33;0.97;;;10.40;99.90;;;;;;5030594;28;20170;-58
2022/01/29 08:55:06;;;;;;;11.93;1.20;;;10.40;99.90;;;;;;5030283;28;20177;-58
2022/01/29 08:57:31;;;;;;;5.40;0.77;;;10.60;99.90;;;;;;5030267;28;20235;-58
2022/01/29 08:59:57;;;;;;;3.47;0.73;;;10.60;99.90;;;;;;5029079;28;20202;-57
2022/01/29 09:02:24;;;;;;;6.43;0.90;;;10.40;99.90;;;;;;5030350;28;20174;-57
2022/01/29 09:04:52;;;;;;;2.83;0.63;;;10.40;99.90;;;;;;5028995;28;20185;-57
2022/01/29 09:07:17;;;;;;;2.00;0.57;;;10.50;99.90;;;;;;5035190;28;20273;-58
2022/01/29 09:09:45;;;;;;;6.03;1.10;;;10.40;99.90;;;;;;5030467;28;20233;-57
2022/01/29 09:12:12;;;;;;;8.30;1.20;;;10.50;99.90;;;;;;5030169;28;20170;-55
2022/01/29 09:14:38;;;;;;;8.97;1.00;;;10.60;99.90;;;;;;5034012;28;20189;-55
2022/01/29 09:17:05;;;;;;;8.43;1.30;;;10.50;99.90;;;;;;5031574;28;20660;-54
2022/01/29 09:19:30;;;;;;;12.50;1.10;;;10.50;99.90;;;;;;5027865;28;20691;-54
2022/01/29 09:21:56;;;;;;;8.87;1.27;;;10.60;99.90;;;;;;5032150;28;20190;-54
2022/01/29 09:24:22;;;;;;;6.63;1.33;;;10.30;99.90;;;;;;5029153;28;20667;-54
2022/01/29 09:26:48;;;;;;;7.97;1.23;;;10.50;99.90;;;;;;5034097;28;20644;-54
2022/01/29 09:29:14;;;;;;;14.17;1.63;;;10.50;99.90;;;;;;5033467;28;20174;-54
2022/01/29 09:31:39;;;;;;;6.77;1.10;;;10.50;99.90;;;;;;5027886;28;20243;-54
2022/01/29 09:34:05;;;;;;;8.37;1.10;;;10.60;99.90;;;;;;5033733;28;20192;-54
2022/01/29 09:36:31;;;;;;;7.50;1.10;;;10.40;99.90;;;;;;5032292;28;20236;-54
2022/01/29 09:38:57;;;;;;;6.50;0.63;;;10.50;99.90;;;;;;5034039;28;20683;-57
2022/01/29 09:41:25;;;;;;;4.97;0.80;;;10.50;99.90;;;;;;5027298;28;20564;-57
2022/01/29 09:43:55;;;;;;;4.37;0.90;;;10.50;99.90;;;;;;5033607;28;20174;-57
2022/01/29 09:46:22;;;;;;;5.23;0.73;;;10.50;99.90;;;;;;5033359;28;20240;-57
2022/01/29 09:48:48;;;;;;;5.47;1.10;;;10.60;99.90;;;;;;5024067;28;20249;-57
2022/01/29 09:51:15;;;;;;;6.97;1.10;;;10.50;99.90;;;;;;5013305;28;20269;-57
2022/01/29 09:53:43;;;;;;;6.47;0.87;;;10.50;99.90;;;;;;5024464;28;20643;-57
2022/01/29 09:56:10;;;;;;;6.60;1.13;;;10.50;99.90;;;;;;5034312;28;20261;-57
2022/01/29 09:58:37;;;;;;;8.27;1.10;;;10.50;99.90;;;;;;5028030;28;20277;-57
2022/01/29 10:01:03;;;;;;;5.57;1.40;;;10.50;99.90;;;;;;5028608;28;20296;-57
2022/01/29 10:03:29;;;;;;;16.23;1.60;;;10.40;99.90;;;;;;5013825;28;20182;-59
2022/01/29 10:05:57;;;;;;;9.40;1.00;;;10.40;99.90;;;;;;5033184;28;20189;-57
2022/01/29 10:08:23;;;;;;;9.03;1.33;;;10.40;99.90;;;;;;5033183;28;20253;-57
2022/01/29 10:10:58;;;;;;;4.47;0.73;;;10.20;99.90;;;;;;5032293;28;20264;-57
2022/01/29 10:13:33;;;;;;;6.57;0.87;;;10.30;99.90;;;;;;5032867;28;20652;-57
2022/01/29 10:16:19;;;;;;;8.50;1.27;;;10.30;99.90;;;;;;5032647;28;20221;-57
2022/01/29 10:18:58;;;;;;;5.23;1.03;;;10.30;99.90;;;;;;5032844;28;20208;-58
2022/01/29 10:21:25;;;;;;;11.63;1.23;;;10.30;99.90;;;;;;5032274;28;20267;-58
2022/01/29 10:24:08;;;;;;;5.37;0.90;;;10.20;99.90;;;;;;5031500;28;20171;-57
2022/01/29 10:26:37;;;;;;;6.00;0.93;;;10.20;99.90;;;;;;5012364;28;20276;-57
2022/01/29 10:29:08;;;;;;;13.27;1.10;;;10.20;99.90;;;;;;5030514;28;20175;-56
2022/01/29 10:31:42;;;;;;;6.43;1.20;;;10.20;99.90;;;;;;5027282;28;20178;-56
2022/01/29 10:34:16;;;;;;;9.10;1.00;;;10.10;99.90;;;;;;5031897;28;20173;-56
2022/01/29 10:36:42;;;;;;;5.40;0.90;;;10.10;99.90;;;;;;5032058;28;20177;-56
2022/01/29 10:39:07;;;;;;;5.57;1.03;;;10.10;99.90;;;;;;5019910;28;20190;-57
2022/01/29 10:41:33;;;;;;;6.60;0.87;;;10.10;99.90;;;;;;5029569;28;20271;-56
2022/01/29 10:44:12;;;;;;;8.37;1.47;;;10.10;99.90;;;;;;5026434;28;20640;-56
2022/01/29 10:46:42;;;;;;;8.33;1.43;;;10.10;99.90;;;;;;5019732;28;20221;-56
2022/01/29 10:49:17;;;;;;;8.00;0.87;;;10.20;99.90;;;;;;5011713;28;20177;-57
2022/01/29 10:51:57;;;;;;;2.63;0.50;;;10.20;99.90;;;;;;5014576;28;20192;-56
2022/01/29 10:54:23;;;;;;;10.53;0.87;;;10.20;99.90;;;;;;5033497;28;20178;-56
2022/01/29 10:56:55;;;;;;;8.30;1.37;;;10.10;99.90;;;;;;5014190;28;20193;-56
2022/01/29 10:59:21;;;;;;;10.67;1.37;;;10.20;99.90;;;;;;5012837;28;20177;-56
2022/01/29 11:01:56;;;;;;;7.50;0.83;;;10.30;99.90;;;;;;5031277;28;20192;-56
2022/01/29 11:04:22;;;;;;;6.00;1.00;;;10.20;99.90;;;;;;5020136;28;20201;-56
2022/01/29 11:06:51;;;;;;;10.00;1.40;;;10.20;99.90;;;;;;5024481;28;20177;-57
2022/01/29 11:09:18;;;;;;;10.27;1.20;;;10.40;99.90;;;;;;5028373;28;20208;-57
2022/01/29 11:11:45;;;;;;;10.10;2.17;;;10.20;99.90;;;;;;5031382;28;20196;-57
2022/01/29 11:14:18;;;;;;;10.60;0.90;;;10.30;99.90;;;;;;5028699;28;20290;-57
2022/01/29 11:16:45;;;;;;;7.73;1.10;;;9.90;99.90;;;;;;5028288;28;20210;-57
2022/01/29 11:19:12;;;;;;;12.47;1.40;;;10.20;99.90;;;;;;5029681;28;20273;-57
2022/01/29 11:21:40;;;;;;;9.60;1.67;;;10.20;99.90;;;;;;5031270;28;20209;-57
2022/01/29 11:24:09;;;;;;;16.23;1.90;;;10.20;99.90;;;;;;5029347;28;20178;-56
2022/01/29 11:26:36;;;;;;;9.47;1.27;;;10.10;99.90;;;;;;5032033;28;20257;-57
2022/01/29 11:29:29;;;;;;;12.23;1.67;;;10.20;99.90;;;;;;5031591;28;20172;-57
2022/01/29 11:32:26;;;;;;;13.97;1.63;;;10.20;99.90;;;;;;5031552;28;20264;-57
2022/01/29 11:35:13;;;;;;;8.20;1.50;;;10.20;99.90;;;;;;5030889;28;20605;-57
2022/01/29 11:37:57;;;;;;;11.17;1.70;;;10.00;99.90;;;;;;5012776;28;20173;-57
2022/01/29 11:40:23;;;;;;;8.87;1.50;;;10.30;99.90;;;;;;5024236;28;20213;-57
2022/01/29 11:43:07;;;;;;;15.20;2.00;;;10.30;99.90;;;;;;5029979;28;20244;-57
2022/01/29 11:45:39;;;;;;;21.23;2.27;;;10.20;99.90;;;;;;5029816;28;20325;-57
2022/01/29 11:48:26;;;;;;;11.97;2.30;;;10.30;99.90;;;;;;5028200;28;20683;-56
2022/01/29 11:50:55;;;;;;;17.67;2.37;;;10.30;99.90;;;;;;5026698;28;20186;-57
2022/01/29 11:53:22;;;;;;;18.90;2.67;;;10.40;99.90;;;;;;5029882;28;20205;-57
2022/01/29 11:55:51;;;;;;;17.60;2.10;;;10.40;99.90;;;;;;5030696;28;20180;-57
2022/01/29 11:58:20;;;;;;;23.80;2.97;;;10.40;99.90;;;;;;5023199;28;20651;-57
2022/01/29 12:00:51;;;;;;;18.63;2.23;;;10.40;99.90;;;;;;5017469;28;20214;-55
2022/01/29 12:03:36;;;;;;;21.80;2.73;;;10.20;99.90;;;;;;5023838;28;20188;-55
2022/01/29 12:06:29;;;;;;;17.53;2.70;;;10.40;99.90;;;;;;5011156;28;20220;-56
2022/01/29 12:09:04;;;;;;;21.87;2.90;;;10.40;99.90;;;;;;5011117;28;20249;-56
2022/01/29 12:11:35;;;;;;;11.33;1.97;;;10.40;99.90;;;;;;5021714;28;20268;-56
2022/01/29 12:14:13;;;;;;;21.83;2.73;;;10.50;99.90;;;;;;5030947;28;20248;-56
2022/01/29 12:16:59;;;;;;;25.00;2.70;;;10.50;99.90;;;;;;5030713;28;20505;-56
2022/01/29 12:19:39;;;;;;;25.43;2.70;;;10.60;99.90;;;;;;5028754;28;20281;-57
2022/01/29 12:22:19;;;;;;;21.47;2.67;;;10.70;99.90;;;;;;5022015;28;20296;-58
2022/01/29 12:24:53;;;;;;;13.23;2.47;;;10.80;99.90;;;;;;5026638;28;20271;-56
2022/01/29 12:27:20;;;;;;;20.93;2.80;;;10.90;99.90;;;;;;5030706;28;20181;-56
2022/01/29 12:29:46;;;;;;;27.53;3.17;;;10.90;99.90;;;;;;5030455;28;20170;-56
2022/01/29 12:32:12;;;;;;;19.80;2.50;;;11.00;99.90;;;;;;5028679;28;20181;-57
2022/01/29 12:34:39;;;;;;;21.33;2.60;;;10.80;99.90;;;;;;5021702;28;20644;-57
2022/01/29 12:37:10;;;;;;;19.20;1.97;;;11.10;99.90;;;;;;5030204;28;20182;-57
2022/01/29 12:39:38;;;;;;;29.03;3.03;;;11.10;99.90;;;;;;5021058;28;20213;-57
2022/01/29 12:42:12;;;;;;;19.43;3.00;;;10.90;99.90;;;;;;5029767;28;20272;-58
2022/01/29 12:44:42;;;;;;;30.90;3.63;;;11.10;99.90;;;;;;5026992;28;20174;-58
2022/01/29 12:47:08;;;;;;;28.70;3.17;;;;;;;;;;4995982;28;20232;-58
2022/01/29 12:49:43;;;;;;;21.40;2.40;;;11.00;99.90;;;;;;5028289;28;20264;-57
2022/01/29 12:52:18;;;;;;;26.10;3.07;;;10.90;99.90;;;;;;5027034;28;20264;-57
2022/01/29 12:54:58;;;;;;;20.53;3.40;;;11.00;99.90;;;;;;5028338;28;20318;-58
2022/01/29 12:57:25;;;;;;;19.33;3.10;;;11.00;99.90;;;;;;5027504;28;20204;-57
2022/01/29 12:59:51;;;;;;;22.27;3.27;;;11.10;99.90;;;;;;5024924;28;20228;-58